sensor_id;sensor_type;location;lat;lon;timestamp;P1;durP1;ratioP1;P2;durP2;ratioP2
70780;SDS011;59514;48.810;2.134;2023-05-31T00:08:01;8.83;;;7.00;;
70780;SDS011;59514;48.810;2.134;2023-05-31T00:10:26;12.45;;;7.75;;
70780;SDS011;59514;48.810;2.134;2023-05-31T00:12:51;9.70;;;8.27;;
70780;SDS011;59514;48.810;2.134;2023-05-31T00:15:17;8.52;;;7.63;;
70780;SDS011;59514;48.810;2.134;2023-05-31T00:17:42;8.48;;;7.55;;
70780;SDS011;59514;48.810;2.134;2023-05-31T00:20:07;7.80;;;7.00;;
70780;SDS011;59514;48.810;2.134;2023-05-31T00:22:33;8.88;;;7.82;;
70780;SDS011;59514;48.810;2.134;2023-05-31T00:24:58;9.43;;;8.10;;
70780;SDS011;59514;48.810;2.134;2023-05-31T00:27:24;12.70;;;8.80;;
70780;SDS011;59514;48.810;2.134;2023-05-31T00:29:49;9.48;;;7.70;;
70780;SDS011;59514;48.810;2.134;2023-05-31T00:32:14;8.82;;;7.68;;
70780;SDS011;59514;48.810;2.134;2023-05-31T00:34:40;9.55;;;7.97;;
70780;SDS011;59514;48.810;2.134;2023-05-31T00:37:05;11.70;;;7.95;;
70780;SDS011;59514;48.810;2.134;2023-05-31T00:39:30;8.85;;;7.95;;
70780;SDS011;59514;48.810;2.134;2023-05-31T00:41:56;9.43;;;8.43;;
70780;SDS011;59514;48.810;2.134;2023-05-31T00:44:21;9.50;;;7.82;;
70780;SDS011;59514;48.810;2.134;2023-05-31T00:46:46;10.40;;;8.00;;
70780;SDS011;59514;48.810;2.134;2023-05-31T00:49:13;8.82;;;7.25;;
70780;SDS011;59514;48.810;2.134;2023-05-31T00:51:38;8.50;;;7.55;;
70780;SDS011;59514;48.810;2.134;2023-05-31T00:54:04;9.63;;;6.75;;
70780;SDS011;59514;48.810;2.134;2023-05-31T00:56:30;8.60;;;7.70;;
70780;SDS011;59514;48.810;2.134;2023-05-31T00:58:58;9.02;;;7.57;;
70780;SDS011;59514;48.810;2.134;2023-05-31T01:01:25;8.63;;;7.68;;
70780;SDS011;59514;48.810;2.134;2023-05-31T01:03:51;9.15;;;7.93;;
70780;SDS011;59514;48.810;2.134;2023-05-31T01:06:18;9.48;;;8.02;;
70780;SDS011;59514;48.810;2.134;2023-05-31T01:08:43;9.20;;;7.80;;
70780;SDS011;59514;48.810;2.134;2023-05-31T01:11:16;8.63;;;7.72;;
70780;SDS011;59514;48.810;2.134;2023-05-31T01:16:33;10.48;;;8.68;;
70780;SDS011;59514;48.810;2.134;2023-05-31T01:19:04;8.77;;;7.88;;
70780;SDS011;59514;48.810;2.134;2023-05-31T01:21:48;12.13;;;8.65;;
70780;SDS011;59514;48.810;2.134;2023-05-31T01:24:25;11.32;;;9.00;;
70780;SDS011;59514;48.810;2.134;2023-05-31T01:26:57;9.30;;;7.88;;
70780;SDS011;59514;48.810;2.134;2023-05-31T01:29:27;10.23;;;8.30;;
70780;SDS011;59514;48.810;2.134;2023-05-31T01:31:55;11.13;;;9.57;;
70780;SDS011;59514;48.810;2.134;2023-05-31T01:34:23;10.65;;;8.23;;
70780;SDS011;59514;48.810;2.134;2023-05-31T01:36:49;9.65;;;8.40;;
70780;SDS011;59514;48.810;2.134;2023-05-31T01:39:14;9.88;;;8.60;;
70780;SDS011;59514;48.810;2.134;2023-05-31T01:41:41;8.38;;;7.55;;
70780;SDS011;59514;48.810;2.134;2023-05-31T01:44:08;9.55;;;8.52;;
70780;SDS011;59514;48.810;2.134;2023-05-31T01:46:35;8.93;;;8.02;;
70780;SDS011;59514;48.810;2.134;2023-05-31T01:49:02;9.25;;;8.23;;
70780;SDS011;59514;48.810;2.134;2023-05-31T01:51:27;10.02;;;8.80;;
70780;SDS011;59514;48.810;2.134;2023-05-31T01:53:57;9.55;;;8.38;;
70780;SDS011;59514;48.810;2.134;2023-05-31T01:56:23;8.95;;;7.78;;
70780;SDS011;59514;48.810;2.134;2023-05-31T01:58:50;8.45;;;7.63;;
70780;SDS011;59514;48.810;2.134;2023-05-31T02:01:17;8.18;;;6.97;;
70780;SDS011;59514;48.810;2.134;2023-05-31T02:03:43;9.63;;;8.00;;
70780;SDS011;59514;48.810;2.134;2023-05-31T02:06:08;8.95;;;8.05;;
70780;SDS011;59514;48.810;2.134;2023-05-31T02:08:38;9.20;;;8.27;;
70780;SDS011;59514;48.810;2.134;2023-05-31T02:11:03;11.07;;;8.48;;
70780;SDS011;59514;48.810;2.134;2023-05-31T02:13:30;8.98;;;8.13;;
70780;SDS011;59514;48.810;2.134;2023-05-31T02:15:56;10.75;;;9.27;;
70780;SDS011;59514;48.810;2.134;2023-05-31T02:18:21;9.63;;;8.20;;
70780;SDS011;59514;48.810;2.134;2023-05-31T02:20:47;9.98;;;9.00;;
70780;SDS011;59514;48.810;2.134;2023-05-31T02:23:13;10.38;;;8.73;;
70780;SDS011;59514;48.810;2.134;2023-05-31T02:25:39;10.65;;;9.23;;
70780;SDS011;59514;48.810;2.134;2023-05-31T02:28:05;10.23;;;9.18;;
70780;SDS011;59514;48.810;2.134;2023-05-31T02:30:31;9.35;;;8.40;;
70780;SDS011;59514;48.810;2.134;2023-05-31T02:32:58;8.70;;;7.90;;
70780;SDS011;59514;48.810;2.134;2023-05-31T02:35:25;10.00;;;8.93;;
70780;SDS011;59514;48.810;2.134;2023-05-31T02:37:50;11.65;;;10.05;;
70780;SDS011;59514;48.810;2.134;2023-05-31T02:40:15;10.60;;;8.95;;
70780;SDS011;59514;48.810;2.134;2023-05-31T02:42:41;10.15;;;9.10;;
70780;SDS011;59514;48.810;2.134;2023-05-31T02:45:07;10.68;;;8.95;;
70780;SDS011;59514;48.810;2.134;2023-05-31T02:47:35;11.57;;;9.85;;
70780;SDS011;59514;48.810;2.134;2023-05-31T02:50:02;10.57;;;9.27;;
70780;SDS011;59514;48.810;2.134;2023-05-31T02:52:28;10.23;;;8.57;;
70780;SDS011;59514;48.810;2.134;2023-05-31T02:54:53;9.60;;;8.50;;
70780;SDS011;59514;48.810;2.134;2023-05-31T02:57:18;9.20;;;8.30;;
70780;SDS011;59514;48.810;2.134;2023-05-31T02:59:44;13.20;;;9.38;;
70780;SDS011;59514;48.810;2.134;2023-05-31T03:02:10;10.40;;;8.60;;
70780;SDS011;59514;48.810;2.134;2023-05-31T03:04:36;8.52;;;7.57;;
70780;SDS011;59514;48.810;2.134;2023-05-31T03:07:01;11.60;;;8.85;;
70780;SDS011;59514;48.810;2.134;2023-05-31T03:09:28;10.80;;;8.93;;
70780;SDS011;59514;48.810;2.134;2023-05-31T03:11:53;11.15;;;9.50;;
70780;SDS011;59514;48.810;2.134;2023-05-31T03:14:18;9.30;;;8.15;;
70780;SDS011;59514;48.810;2.134;2023-05-31T03:16:44;9.00;;;7.72;;
70780;SDS011;59514;48.810;2.134;2023-05-31T03:19:09;9.38;;;8.40;;
70780;SDS011;59514;48.810;2.134;2023-05-31T03:21:37;11.70;;;8.68;;
70780;SDS011;59514;48.810;2.134;2023-05-31T03:24:03;10.43;;;9.40;;
70780;SDS011;59514;48.810;2.134;2023-05-31T03:26:29;12.35;;;9.55;;
70780;SDS011;59514;48.810;2.134;2023-05-31T03:28:54;11.63;;;10.43;;
70780;SDS011;59514;48.810;2.134;2023-05-31T03:31:19;11.02;;;9.68;;
70780;SDS011;59514;48.810;2.134;2023-05-31T03:33:45;9.68;;;8.68;;
70780;SDS011;59514;48.810;2.134;2023-05-31T03:36:10;10.98;;;9.88;;
70780;SDS011;59514;48.810;2.134;2023-05-31T03:38:36;9.52;;;8.52;;
70780;SDS011;59514;48.810;2.134;2023-05-31T03:41:01;9.00;;;8.10;;
70780;SDS011;59514;48.810;2.134;2023-05-31T03:43:26;10.05;;;9.05;;
70780;SDS011;59514;48.810;2.134;2023-05-31T03:45:51;11.48;;;10.38;;
70780;SDS011;59514;48.810;2.134;2023-05-31T03:48:17;12.07;;;10.40;;
70780;SDS011;59514;48.810;2.134;2023-05-31T03:50:43;11.05;;;9.93;;
70780;SDS011;59514;48.810;2.134;2023-05-31T03:53:08;11.77;;;10.52;;
70780;SDS011;59514;48.810;2.134;2023-05-31T03:55:34;12.45;;;10.77;;
70780;SDS011;59514;48.810;2.134;2023-05-31T03:57:59;11.52;;;10.30;;
70780;SDS011;59514;48.810;2.134;2023-05-31T04:00:25;11.95;;;10.73;;
70780;SDS011;59514;48.810;2.134;2023-05-31T04:02:51;12.63;;;10.60;;
70780;SDS011;59514;48.810;2.134;2023-05-31T04:05:16;10.73;;;9.63;;
70780;SDS011;59514;48.810;2.134;2023-05-31T04:07:42;12.82;;;11.63;;
70780;SDS011;59514;48.810;2.134;2023-05-31T04:10:07;13.32;;;11.75;;
70780;SDS011;59514;48.810;2.134;2023-05-31T04:12:33;13.55;;;11.18;;
70780;SDS011;59514;48.810;2.134;2023-05-31T04:14:58;13.00;;;11.70;;
70780;SDS011;59514;48.810;2.134;2023-05-31T04:17:24;13.30;;;10.80;;
70780;SDS011;59514;48.810;2.134;2023-05-31T04:19:49;11.98;;;10.77;;
70780;SDS011;59514;48.810;2.134;2023-05-31T04:22:16;12.13;;;10.93;;
70780;SDS011;59514;48.810;2.134;2023-05-31T04:24:41;13.75;;;12.18;;
70780;SDS011;59514;48.810;2.134;2023-05-31T04:27:07;13.18;;;11.82;;
70780;SDS011;59514;48.810;2.134;2023-05-31T04:29:32;12.40;;;11.15;;
70780;SDS011;59514;48.810;2.134;2023-05-31T04:31:57;14.93;;;12.13;;
70780;SDS011;59514;48.810;2.134;2023-05-31T04:34:23;11.95;;;10.70;;
70780;SDS011;59514;48.810;2.134;2023-05-31T04:36:49;13.63;;;12.20;;
70780;SDS011;59514;48.810;2.134;2023-05-31T04:39:15;16.92;;;12.00;;
70780;SDS011;59514;48.810;2.134;2023-05-31T04:41:41;12.45;;;10.80;;
70780;SDS011;59514;48.810;2.134;2023-05-31T04:44:07;13.07;;;11.77;;
70780;SDS011;59514;48.810;2.134;2023-05-31T04:46:32;12.68;;;11.40;;
70780;SDS011;59514;48.810;2.134;2023-05-31T04:48:58;13.65;;;12.05;;
70780;SDS011;59514;48.810;2.134;2023-05-31T04:51:25;12.80;;;11.50;;
70780;SDS011;59514;48.810;2.134;2023-05-31T04:53:51;14.18;;;12.38;;
70780;SDS011;59514;48.810;2.134;2023-05-31T04:56:16;13.05;;;11.73;;
70780;SDS011;59514;48.810;2.134;2023-05-31T04:58:42;13.27;;;11.88;;
70780;SDS011;59514;48.810;2.134;2023-05-31T05:01:07;11.85;;;10.65;;
70780;SDS011;59514;48.810;2.134;2023-05-31T05:03:33;12.43;;;10.65;;
70780;SDS011;59514;48.810;2.134;2023-05-31T05:06:00;13.15;;;11.90;;
70780;SDS011;59514;48.810;2.134;2023-05-31T05:08:36;13.18;;;11.90;;
70780;SDS011;59514;48.810;2.134;2023-05-31T05:11:01;11.55;;;10.38;;
70780;SDS011;59514;48.810;2.134;2023-05-31T05:13:27;12.05;;;10.85;;
70780;SDS011;59514;48.810;2.134;2023-05-31T05:15:53;11.65;;;10.55;;
70780;SDS011;59514;48.810;2.134;2023-05-31T05:18:18;13.52;;;11.95;;
70780;SDS011;59514;48.810;2.134;2023-05-31T05:20:43;12.40;;;11.10;;
70780;SDS011;59514;48.810;2.134;2023-05-31T05:23:09;13.45;;;11.85;;
70780;SDS011;59514;48.810;2.134;2023-05-31T05:25:35;14.15;;;12.30;;
70780;SDS011;59514;48.810;2.134;2023-05-31T05:28:00;13.77;;;11.93;;
70780;SDS011;59514;48.810;2.134;2023-05-31T05:30:26;12.95;;;11.65;;
70780;SDS011;59514;48.810;2.134;2023-05-31T05:32:51;12.10;;;10.90;;
70780;SDS011;59514;48.810;2.134;2023-05-31T05:35:16;13.02;;;11.73;;
70780;SDS011;59514;48.810;2.134;2023-05-31T05:37:42;11.45;;;10.27;;
70780;SDS011;59514;48.810;2.134;2023-05-31T05:40:07;12.98;;;11.60;;
70780;SDS011;59514;48.810;2.134;2023-05-31T05:42:33;12.52;;;11.10;;
70780;SDS011;59514;48.810;2.134;2023-05-31T05:45:02;12.75;;;11.45;;
70780;SDS011;59514;48.810;2.134;2023-05-31T05:47:28;11.05;;;9.90;;
70780;SDS011;59514;48.810;2.134;2023-05-31T05:49:54;12.13;;;10.57;;
70780;SDS011;59514;48.810;2.134;2023-05-31T05:52:19;11.63;;;10.20;;
70780;SDS011;59514;48.810;2.134;2023-05-31T05:54:44;12.65;;;11.40;;
70780;SDS011;59514;48.810;2.134;2023-05-31T05:57:10;14.48;;;10.77;;
70780;SDS011;59514;48.810;2.134;2023-05-31T05:59:35;14.05;;;12.02;;
70780;SDS011;59514;48.810;2.134;2023-05-31T06:02:02;12.43;;;11.13;;
70780;SDS011;59514;48.810;2.134;2023-05-31T06:04:28;11.65;;;10.35;;
70780;SDS011;59514;48.810;2.134;2023-05-31T06:06:53;11.98;;;10.80;;
70780;SDS011;59514;48.810;2.134;2023-05-31T06:09:19;11.57;;;10.27;;
70780;SDS011;59514;48.810;2.134;2023-05-31T06:11:44;10.82;;;9.35;;
70780;SDS011;59514;48.810;2.134;2023-05-31T06:14:09;12.88;;;10.80;;
70780;SDS011;59514;48.810;2.134;2023-05-31T06:16:34;11.75;;;9.98;;
70780;SDS011;59514;48.810;2.134;2023-05-31T06:19:00;12.63;;;11.32;;
70780;SDS011;59514;48.810;2.134;2023-05-31T06:21:25;10.55;;;9.52;;
70780;SDS011;59514;48.810;2.134;2023-05-31T06:23:51;11.98;;;10.77;;
70780;SDS011;59514;48.810;2.134;2023-05-31T06:26:16;11.13;;;9.93;;
70780;SDS011;59514;48.810;2.134;2023-05-31T06:28:42;11.80;;;10.02;;
70780;SDS011;59514;48.810;2.134;2023-05-31T06:31:07;9.52;;;8.52;;
70780;SDS011;59514;48.810;2.134;2023-05-31T06:33:34;9.60;;;8.60;;
70780;SDS011;59514;48.810;2.134;2023-05-31T06:36:00;9.75;;;8.75;;
70780;SDS011;59514;48.810;2.134;2023-05-31T06:38:25;11.75;;;9.38;;
70780;SDS011;59514;48.810;2.134;2023-05-31T06:40:50;10.52;;;9.45;;
70780;SDS011;59514;48.810;2.134;2023-05-31T06:43:17;10.27;;;9.20;;
70780;SDS011;59514;48.810;2.134;2023-05-31T06:45:42;10.20;;;9.15;;
70780;SDS011;59514;48.810;2.134;2023-05-31T06:48:08;10.60;;;9.60;;
70780;SDS011;59514;48.810;2.134;2023-05-31T06:50:35;9.85;;;8.85;;
70780;SDS011;59514;48.810;2.134;2023-05-31T06:53:01;10.07;;;8.90;;
70780;SDS011;59514;48.810;2.134;2023-05-31T06:55:26;8.10;;;7.22;;
70780;SDS011;59514;48.810;2.134;2023-05-31T06:57:51;9.15;;;8.23;;
70780;SDS011;59514;48.810;2.134;2023-05-31T07:00:17;8.93;;;7.88;;
70780;SDS011;59514;48.810;2.134;2023-05-31T07:02:43;9.25;;;7.88;;
70780;SDS011;59514;48.810;2.134;2023-05-31T07:05:09;9.20;;;8.02;;
70780;SDS011;59514;48.810;2.134;2023-05-31T07:07:34;9.02;;;7.25;;
70780;SDS011;59514;48.810;2.134;2023-05-31T07:09:59;9.40;;;7.60;;
70780;SDS011;59514;48.810;2.134;2023-05-31T07:12:26;7.72;;;6.93;;
70780;SDS011;59514;48.810;2.134;2023-05-31T07:14:51;6.97;;;6.15;;
70780;SDS011;59514;48.810;2.134;2023-05-31T07:17:16;7.20;;;6.50;;
70780;SDS011;59514;48.810;2.134;2023-05-31T07:19:48;7.72;;;6.68;;
70780;SDS011;59514;48.810;2.134;2023-05-31T07:22:14;8.63;;;6.68;;
70780;SDS011;59514;48.810;2.134;2023-05-31T07:24:41;6.32;;;5.72;;
70780;SDS011;59514;48.810;2.134;2023-05-31T07:27:06;6.18;;;5.10;;
70780;SDS011;59514;48.810;2.134;2023-05-31T07:29:32;6.38;;;5.38;;
70780;SDS011;59514;48.810;2.134;2023-05-31T07:31:58;8.68;;;5.63;;
70780;SDS011;59514;48.810;2.134;2023-05-31T07:34:23;6.30;;;5.70;;
70780;SDS011;59514;48.810;2.134;2023-05-31T07:36:49;7.05;;;5.95;;
70780;SDS011;59514;48.810;2.134;2023-05-31T07:39:14;7.78;;;4.95;;
70780;SDS011;59514;48.810;2.134;2023-05-31T07:41:40;6.38;;;4.75;;
70780;SDS011;59514;48.810;2.134;2023-05-31T07:44:06;6.30;;;4.93;;
70780;SDS011;59514;48.810;2.134;2023-05-31T07:46:31;5.95;;;5.05;;
70780;SDS011;59514;48.810;2.134;2023-05-31T07:48:56;6.25;;;5.45;;
70780;SDS011;59514;48.810;2.134;2023-05-31T07:51:22;9.98;;;5.38;;
70780;SDS011;59514;48.810;2.134;2023-05-31T07:53:47;6.90;;;5.43;;
70780;SDS011;59514;48.810;2.134;2023-05-31T07:56:13;7.47;;;4.70;;
70780;SDS011;59514;48.810;2.134;2023-05-31T07:58:38;7.05;;;4.78;;
70780;SDS011;59514;48.810;2.134;2023-05-31T08:01:04;5.93;;;4.82;;
70780;SDS011;59514;48.810;2.134;2023-05-31T08:03:30;6.05;;;4.30;;
70780;SDS011;59514;48.810;2.134;2023-05-31T08:05:56;8.73;;;5.15;;
70780;SDS011;59514;48.810;2.134;2023-05-31T08:08:21;5.95;;;4.68;;
70780;SDS011;59514;48.810;2.134;2023-05-31T08:10:47;7.25;;;5.40;;
70780;SDS011;59514;48.810;2.134;2023-05-31T08:13:12;7.50;;;5.18;;
70780;SDS011;59514;48.810;2.134;2023-05-31T08:15:37;5.72;;;5.10;;
70780;SDS011;59514;48.810;2.134;2023-05-31T08:18:03;4.95;;;4.45;;
70780;SDS011;59514;48.810;2.134;2023-05-31T08:20:28;4.93;;;4.38;;
70780;SDS011;59514;48.810;2.134;2023-05-31T08:22:53;7.13;;;4.45;;
70780;SDS011;59514;48.810;2.134;2023-05-31T08:25:19;7.53;;;5.20;;
70780;SDS011;59514;48.810;2.134;2023-05-31T08:27:45;5.95;;;4.63;;
70780;SDS011;59514;48.810;2.134;2023-05-31T08:30:10;7.72;;;4.50;;
70780;SDS011;59514;48.810;2.134;2023-05-31T08:32:37;5.50;;;4.70;;
70780;SDS011;59514;48.810;2.134;2023-05-31T08:35:04;6.53;;;4.68;;
70780;SDS011;59514;48.810;2.134;2023-05-31T08:37:31;6.43;;;4.95;;
70780;SDS011;59514;48.810;2.134;2023-05-31T08:39:57;7.90;;;5.13;;
70780;SDS011;59514;48.810;2.134;2023-05-31T08:42:27;6.32;;;4.43;;
70780;SDS011;59514;48.810;2.134;2023-05-31T08:44:58;4.88;;;4.35;;
70780;SDS011;59514;48.810;2.134;2023-05-31T08:47:27;7.82;;;4.80;;
70780;SDS011;59514;48.810;2.134;2023-05-31T08:49:57;7.95;;;5.35;;
70780;SDS011;59514;48.810;2.134;2023-05-31T08:52:24;6.10;;;4.28;;
70780;SDS011;59514;48.810;2.134;2023-05-31T08:54:50;9.40;;;4.90;;
70780;SDS011;59514;48.810;2.134;2023-05-31T08:57:18;4.72;;;4.10;;
70780;SDS011;59514;48.810;2.134;2023-05-31T08:59:44;6.03;;;4.55;;
70780;SDS011;59514;48.810;2.134;2023-05-31T09:02:10;6.65;;;4.40;;
70780;SDS011;59514;48.810;2.134;2023-05-31T09:04:38;8.43;;;4.50;;
70780;SDS011;59514;48.810;2.134;2023-05-31T09:07:05;4.13;;;3.47;;
70780;SDS011;59514;48.810;2.134;2023-05-31T09:09:30;4.22;;;3.75;;
70780;SDS011;59514;48.810;2.134;2023-05-31T09:11:55;5.78;;;4.20;;
70780;SDS011;59514;48.810;2.134;2023-05-31T09:14:22;4.95;;;4.35;;
70780;SDS011;59514;48.810;2.134;2023-05-31T09:16:49;4.38;;;3.67;;
70780;SDS011;59514;48.810;2.134;2023-05-31T09:19:15;4.50;;;4.07;;
70780;SDS011;59514;48.810;2.134;2023-05-31T09:21:41;6.60;;;3.67;;
70780;SDS011;59514;48.810;2.134;2023-05-31T09:24:08;5.13;;;4.15;;
70780;SDS011;59514;48.810;2.134;2023-05-31T09:26:35;4.50;;;4.03;;
70780;SDS011;59514;48.810;2.134;2023-05-31T09:29:09;6.20;;;4.22;;
70780;SDS011;59514;48.810;2.134;2023-05-31T09:31:35;5.32;;;3.85;;
70780;SDS011;59514;48.810;2.134;2023-05-31T09:34:00;4.20;;;3.42;;
70780;SDS011;59514;48.810;2.134;2023-05-31T09:36:31;5.32;;;3.42;;
70780;SDS011;59514;48.810;2.134;2023-05-31T09:39:00;4.68;;;4.22;;
70780;SDS011;59514;48.810;2.134;2023-05-31T09:41:30;6.50;;;4.30;;
70780;SDS011;59514;48.810;2.134;2023-05-31T09:43:56;6.18;;;4.15;;
70780;SDS011;59514;48.810;2.134;2023-05-31T09:46:22;4.45;;;3.78;;
70780;SDS011;59514;48.810;2.134;2023-05-31T09:49:02;3.90;;;3.05;;
70780;SDS011;59514;48.810;2.134;2023-05-31T09:51:31;3.72;;;3.38;;
70780;SDS011;59514;48.810;2.134;2023-05-31T09:54:01;5.00;;;3.55;;
70780;SDS011;59514;48.810;2.134;2023-05-31T09:56:35;5.05;;;3.58;;
70780;SDS011;59514;48.810;2.134;2023-05-31T09:59:01;3.60;;;3.30;;
70780;SDS011;59514;48.810;2.134;2023-05-31T10:01:28;4.15;;;3.40;;
70780;SDS011;59514;48.810;2.134;2023-05-31T10:03:55;3.20;;;2.83;;
70780;SDS011;59514;48.810;2.134;2023-05-31T10:06:20;4.35;;;3.33;;
70780;SDS011;59514;48.810;2.134;2023-05-31T10:08:46;3.22;;;2.92;;
70780;SDS011;59514;48.810;2.134;2023-05-31T10:11:13;5.30;;;3.33;;
70780;SDS011;59514;48.810;2.134;2023-05-31T10:13:42;5.43;;;3.10;;
70780;SDS011;59514;48.810;2.134;2023-05-31T10:16:09;4.00;;;3.22;;
70780;SDS011;59514;48.810;2.134;2023-05-31T10:18:40;3.22;;;2.70;;
70780;SDS011;59514;48.810;2.134;2023-05-31T10:21:21;3.17;;;2.88;;
70780;SDS011;59514;48.810;2.134;2023-05-31T10:23:55;3.75;;;3.20;;
70780;SDS011;59514;48.810;2.134;2023-05-31T10:26:22;4.68;;;3.13;;
70780;SDS011;59514;48.810;2.134;2023-05-31T10:36:50;7.53;;;3.13;;
70780;SDS011;59514;48.810;2.134;2023-05-31T10:39:22;5.43;;;2.40;;
70780;SDS011;59514;48.810;2.134;2023-05-31T10:41:49;3.08;;;2.72;;
70780;SDS011;59514;48.810;2.134;2023-05-31T10:44:24;4.70;;;2.75;;
70780;SDS011;59514;48.810;2.134;2023-05-31T10:46:59;4.88;;;2.78;;
70780;SDS011;59514;48.810;2.134;2023-05-31T10:49:29;4.43;;;2.67;;
70780;SDS011;59514;48.810;2.134;2023-05-31T10:52:08;4.07;;;2.65;;
70780;SDS011;59514;48.810;2.134;2023-05-31T10:54:34;4.93;;;2.58;;
70780;SDS011;59514;48.810;2.134;2023-05-31T10:57:02;3.25;;;2.33;;
70780;SDS011;59514;48.810;2.134;2023-05-31T10:59:28;6.20;;;2.90;;
70780;SDS011;59514;48.810;2.134;2023-05-31T11:01:54;5.68;;;2.95;;
70780;SDS011;59514;48.810;2.134;2023-05-31T11:04:24;3.13;;;2.63;;
70780;SDS011;59514;48.810;2.134;2023-05-31T11:06:54;4.95;;;2.40;;
70780;SDS011;59514;48.810;2.134;2023-05-31T11:09:20;2.50;;;2.30;;
70780;SDS011;59514;48.810;2.134;2023-05-31T11:11:47;3.20;;;2.88;;
70780;SDS011;59514;48.810;2.134;2023-05-31T11:14:24;6.03;;;2.60;;
70780;SDS011;59514;48.810;2.134;2023-05-31T11:19:21;4.68;;;2.42;;
70780;SDS011;59514;48.810;2.134;2023-05-31T11:21:54;3.22;;;2.15;;
70780;SDS011;59514;48.810;2.134;2023-05-31T11:24:28;3.38;;;2.28;;
70780;SDS011;59514;48.810;2.134;2023-05-31T11:26:59;2.95;;;2.42;;
70780;SDS011;59514;48.810;2.134;2023-05-31T11:32:09;2.78;;;2.53;;
70780;SDS011;59514;48.810;2.134;2023-05-31T11:34:35;3.88;;;2.60;;
70780;SDS011;59514;48.810;2.134;2023-05-31T11:37:13;2.90;;;2.25;;
70780;SDS011;59514;48.810;2.134;2023-05-31T11:39:38;4.27;;;2.53;;
70780;SDS011;59514;48.810;2.134;2023-05-31T11:42:08;4.72;;;2.65;;
70780;SDS011;59514;48.810;2.134;2023-05-31T11:44:35;3.40;;;2.80;;
70780;SDS011;59514;48.810;2.134;2023-05-31T11:47:07;2.65;;;2.38;;
70780;SDS011;59514;48.810;2.134;2023-05-31T11:49:35;2.70;;;2.50;;
70780;SDS011;59514;48.810;2.134;2023-05-31T11:52:01;3.08;;;2.60;;
70780;SDS011;59514;48.810;2.134;2023-05-31T11:54:28;3.92;;;2.92;;
70780;SDS011;59514;48.810;2.134;2023-05-31T11:57:05;3.42;;;2.83;;
70780;SDS011;59514;48.810;2.134;2023-05-31T11:59:32;3.70;;;2.40;;
70780;SDS011;59514;48.810;2.134;2023-05-31T12:02:02;6.78;;;2.15;;
70780;SDS011;59514;48.810;2.134;2023-05-31T12:04:32;5.20;;;3.47;;
70780;SDS011;59514;48.810;2.134;2023-05-31T12:07:02;5.30;;;2.90;;
70780;SDS011;59514;48.810;2.134;2023-05-31T12:09:32;4.70;;;2.63;;
70780;SDS011;59514;48.810;2.134;2023-05-31T12:11:59;2.70;;;2.50;;
70780;SDS011;59514;48.810;2.134;2023-05-31T12:14:27;5.45;;;2.58;;
70780;SDS011;59514;48.810;2.134;2023-05-31T12:16:53;3.05;;;2.70;;
70780;SDS011;59514;48.810;2.134;2023-05-31T12:19:19;4.25;;;2.60;;
70780;SDS011;59514;48.810;2.134;2023-05-31T12:21:45;3.20;;;2.90;;
70780;SDS011;59514;48.810;2.134;2023-05-31T12:24:12;3.03;;;2.35;;
70780;SDS011;59514;48.810;2.134;2023-05-31T12:26:42;2.97;;;2.30;;
70780;SDS011;59514;48.810;2.134;2023-05-31T12:29:09;4.03;;;2.75;;
70780;SDS011;59514;48.810;2.134;2023-05-31T12:31:38;2.70;;;2.50;;
70780;SDS011;59514;48.810;2.134;2023-05-31T12:36:36;3.75;;;2.80;;
70780;SDS011;59514;48.810;2.134;2023-05-31T12:39:21;2.90;;;2.42;;
70780;SDS011;59514;48.810;2.134;2023-05-31T12:41:49;2.72;;;2.42;;
70780;SDS011;59514;48.810;2.134;2023-05-31T12:44:19;2.83;;;2.35;;
70780;SDS011;59514;48.810;2.134;2023-05-31T12:46:46;5.93;;;2.88;;
70780;SDS011;59514;48.810;2.134;2023-05-31T12:49:22;4.47;;;2.78;;
70780;SDS011;59514;48.810;2.134;2023-05-31T12:54:37;2.50;;;2.30;;
70780;SDS011;59514;48.810;2.134;2023-05-31T12:57:04;4.32;;;2.55;;
70780;SDS011;59514;48.810;2.134;2023-05-31T12:59:34;7.20;;;3.15;;
70780;SDS011;59514;48.810;2.134;2023-05-31T13:02:00;2.90;;;2.40;;
70780;SDS011;59514;48.810;2.134;2023-05-31T13:04:26;5.35;;;2.70;;
70780;SDS011;59514;48.810;2.134;2023-05-31T13:06:52;3.45;;;2.75;;
70780;SDS011;59514;48.810;2.134;2023-05-31T13:09:18;2.92;;;2.58;;
70780;SDS011;59514;48.810;2.134;2023-05-31T13:11:44;2.80;;;2.60;;
70780;SDS011;59514;48.810;2.134;2023-05-31T13:14:13;4.43;;;3.00;;
70780;SDS011;59514;48.810;2.134;2023-05-31T13:16:39;4.32;;;2.80;;
70780;SDS011;59514;48.810;2.134;2023-05-31T13:19:06;3.33;;;2.55;;
70780;SDS011;59514;48.810;2.134;2023-05-31T13:21:33;3.22;;;2.45;;
70780;SDS011;59514;48.810;2.134;2023-05-31T13:24:00;5.43;;;2.67;;
70780;SDS011;59514;48.810;2.134;2023-05-31T13:26:26;3.50;;;2.50;;
70780;SDS011;59514;48.810;2.134;2023-05-31T13:28:52;3.35;;;2.90;;
70780;SDS011;59514;48.810;2.134;2023-05-31T13:31:18;4.25;;;2.78;;
70780;SDS011;59514;48.810;2.134;2023-05-31T13:33:44;3.42;;;2.50;;
70780;SDS011;59514;48.810;2.134;2023-05-31T13:36:11;3.33;;;2.80;;
70780;SDS011;59514;48.810;2.134;2023-05-31T13:38:37;2.53;;;2.33;;
70780;SDS011;59514;48.810;2.134;2023-05-31T13:41:02;3.50;;;2.33;;
70780;SDS011;59514;48.810;2.134;2023-05-31T13:43:30;2.70;;;2.50;;
70780;SDS011;59514;48.810;2.134;2023-05-31T13:45:55;2.90;;;2.53;;
70780;SDS011;59514;48.810;2.134;2023-05-31T13:48:21;2.67;;;2.40;;
70780;SDS011;59514;48.810;2.134;2023-05-31T13:50:46;2.45;;;2.25;;
70780;SDS011;59514;48.810;2.134;2023-05-31T13:53:12;2.70;;;2.13;;
70780;SDS011;59514;48.810;2.134;2023-05-31T13:55:37;2.60;;;2.13;;
70780;SDS011;59514;48.810;2.134;2023-05-31T13:58:03;2.73;;;2.30;;
70780;SDS011;59514;48.810;2.134;2023-05-31T14:00:30;3.63;;;2.47;;
70780;SDS011;59514;48.810;2.134;2023-05-31T14:02:56;4.20;;;2.40;;
70780;SDS011;59514;48.810;2.134;2023-05-31T14:05:21;3.78;;;2.25;;
70780;SDS011;59514;48.810;2.134;2023-05-31T14:07:46;3.03;;;2.47;;
70780;SDS011;59514;48.810;2.134;2023-05-31T14:10:12;3.27;;;2.50;;
70780;SDS011;59514;48.810;2.134;2023-05-31T14:12:37;5.53;;;2.65;;
70780;SDS011;59514;48.810;2.134;2023-05-31T14:15:02;3.97;;;2.33;;
70780;SDS011;59514;48.810;2.134;2023-05-31T14:17:29;3.58;;;2.63;;
70780;SDS011;59514;48.810;2.134;2023-05-31T14:19:55;3.72;;;2.13;;
70780;SDS011;59514;48.810;2.134;2023-05-31T14:22:20;2.97;;;2.13;;
70780;SDS011;59514;48.810;2.134;2023-05-31T14:24:46;2.80;;;2.20;;
70780;SDS011;59514;48.810;2.134;2023-05-31T14:27:11;3.00;;;2.70;;
70780;SDS011;59514;48.810;2.134;2023-05-31T14:29:37;2.92;;;2.63;;
70780;SDS011;59514;48.810;2.134;2023-05-31T14:32:02;2.70;;;2.50;;
70780;SDS011;59514;48.810;2.134;2023-05-31T14:34:28;2.90;;;2.33;;
70780;SDS011;59514;48.810;2.134;2023-05-31T14:36:53;3.53;;;2.13;;
70780;SDS011;59514;48.810;2.134;2023-05-31T14:39:18;3.33;;;2.00;;
70780;SDS011;59514;48.810;2.134;2023-05-31T14:41:44;3.03;;;2.43;;
70780;SDS011;59514;48.810;2.134;2023-05-31T14:44:09;2.30;;;2.10;;
70780;SDS011;59514;48.810;2.134;2023-05-31T14:46:35;3.07;;;2.10;;
70780;SDS011;59514;48.810;2.134;2023-05-31T14:49:00;3.23;;;2.10;;
70780;SDS011;59514;48.810;2.134;2023-05-31T14:51:25;2.60;;;2.40;;
70780;SDS011;59514;48.810;2.134;2023-05-31T14:53:53;2.53;;;2.25;;
70780;SDS011;59514;48.810;2.134;2023-05-31T14:56:18;3.33;;;2.08;;
70780;SDS011;59514;48.810;2.134;2023-05-31T14:58:44;2.58;;;2.35;;
70780;SDS011;59514;48.810;2.134;2023-05-31T15:01:10;2.90;;;1.83;;
70780;SDS011;59514;48.810;2.134;2023-05-31T15:03:36;2.13;;;2.03;;
70780;SDS011;59514;48.810;2.134;2023-05-31T15:06:01;4.73;;;2.37;;